sensor_id;sensor_type;location;lat;lon;timestamp;pressure;altitude;pressure_sealevel;temperature;humidity
18821;BME280;9539;59.332;18.034;2023-03-04T00:01:12;99896.72;;;6.94;34.77
18821;BME280;9539;59.332;18.034;2023-03-04T00:03:35;99893.34;;;6.01;35.38
18821;BME280;9539;59.332;18.034;2023-03-04T00:05:57;99905.81;;;7.04;34.36
18821;BME280;9539;59.332;18.034;2023-03-04T00:08:19;99898.09;;;6.41;35.07
18821;BME280;9539;59.332;18.034;2023-03-04T00:10:41;99895.72;;;6.67;35.03
18821;BME280;9539;59.332;18.034;2023-03-04T00:13:04;99892.69;;;6.59;34.43
18821;BME280;9539;59.332;18.034;2023-03-04T00:15:26;99886.19;;;6.03;34.86
18821;BME280;9539;59.332;18.034;2023-03-04T00:17:48;99889.38;;;6.85;34.01
18821;BME280;9539;59.332;18.034;2023-03-04T00:20:11;99887.94;;;6.79;34.39
18821;BME280;9539;59.332;18.034;2023-03-04T00:22:33;99893.66;;;6.72;34.82
18821;BME280;9539;59.332;18.034;2023-03-04T00:24:55;99890.56;;;6.50;35.05
18821;BME280;9539;59.332;18.034;2023-03-04T00:27:17;99903.00;;;6.48;34.62
18821;BME280;9539;59.332;18.034;2023-03-04T00:29:41;99893.50;;;6.89;34.30
18821;BME280;9539;59.332;18.034;2023-03-04T00:32:03;99896.38;;;6.70;34.11
18821;BME280;9539;59.332;18.034;2023-03-04T00:34:25;99890.69;;;6.48;34.64
18821;BME280;9539;59.332;18.034;2023-03-04T00:36:47;99886.53;;;6.13;34.71
18821;BME280;9539;59.332;18.034;2023-03-04T00:39:09;99884.38;;;6.51;34.21
18821;BME280;9539;59.332;18.034;2023-03-04T00:41:31;99892.25;;;5.89;35.03
18821;BME280;9539;59.332;18.034;2023-03-04T00:43:53;99901.03;;;5.73;34.99
18821;BME280;9539;59.332;18.034;2023-03-04T00:46:16;99898.63;;;6.01;34.66
18821;BME280;9539;59.332;18.034;2023-03-04T00:48:38;99887.56;;;6.56;34.24
18821;BME280;9539;59.332;18.034;2023-03-04T00:51:00;99895.63;;;5.91;34.84
18821;BME280;9539;59.332;18.034;2023-03-04T00:53:22;99893.69;;;6.26;35.23
18821;BME280;9539;59.332;18.034;2023-03-04T00:55:44;99890.38;;;5.91;35.36
18821;BME280;9539;59.332;18.034;2023-03-04T00:58:07;99895.09;;;6.32;34.66
18821;BME280;9539;59.332;18.034;2023-03-04T01:00:29;99892.91;;;6.24;35.58
18821;BME280;9539;59.332;18.034;2023-03-04T01:02:52;99885.59;;;5.98;35.51
18821;BME280;9539;59.332;18.034;2023-03-04T01:05:14;99888.28;;;6.43;34.99
18821;BME280;9539;59.332;18.034;2023-03-04T01:07:36;99898.63;;;6.01;35.85
18821;BME280;9539;59.332;18.034;2023-03-04T01:09:59;99887.97;;;5.87;35.67
18821;BME280;9539;59.332;18.034;2023-03-04T01:12:21;99891.81;;;6.13;35.25
18821;BME280;9539;59.332;18.034;2023-03-04T01:14:43;99896.09;;;5.67;35.95
18821;BME280;9539;59.332;18.034;2023-03-04T01:17:05;99887.13;;;6.33;35.60
18821;BME280;9539;59.332;18.034;2023-03-04T01:19:28;99887.53;;;6.41;34.99
18821;BME280;9539;59.332;18.034;2023-03-04T01:21:50;99897.72;;;6.48;35.15
18821;BME280;9539;59.332;18.034;2023-03-04T01:24:12;99892.25;;;6.05;35.62
18821;BME280;9539;59.332;18.034;2023-03-04T01:26:34;99891.09;;;5.78;36.20
18821;BME280;9539;59.332;18.034;2023-03-04T01:28:56;99906.88;;;5.78;36.35
18821;BME280;9539;59.332;18.034;2023-03-04T01:31:18;99893.53;;;5.49;36.43
18821;BME280;9539;59.332;18.034;2023-03-04T01:33:40;99913.13;;;5.92;36.19
18821;BME280;9539;59.332;18.034;2023-03-04T01:36:03;99905.63;;;5.69;36.07
18821;BME280;9539;59.332;18.034;2023-03-04T01:38:25;99907.59;;;5.81;35.92
18821;BME280;9539;59.332;18.034;2023-03-04T01:40:47;99909.44;;;5.31;36.28
18821;BME280;9539;59.332;18.034;2023-03-04T01:43:15;99904.47;;;6.06;35.67
18821;BME280;9539;59.332;18.034;2023-03-04T01:45:41;99901.00;;;6.06;35.36
18821;BME280;9539;59.332;18.034;2023-03-04T01:48:03;99904.56;;;6.05;35.56
18821;BME280;9539;59.332;18.034;2023-03-04T01:50:28;99900.56;;;5.49;35.94
18821;BME280;9539;59.332;18.034;2023-03-04T01:52:53;99886.03;;;5.90;35.60
18821;BME280;9539;59.332;18.034;2023-03-04T01:55:17;99899.09;;;5.76;35.50
18821;BME280;9539;59.332;18.034;2023-03-04T01:57:40;99896.50;;;5.43;35.82
18821;BME280;9539;59.332;18.034;2023-03-04T02:00:17;99895.25;;;5.66;36.08
18821;BME280;9539;59.332;18.034;2023-03-04T02:02:40;99884.56;;;5.69;35.80
18821;BME280;9539;59.332;18.034;2023-03-04T02:05:02;99879.59;;;5.47;36.15
18821;BME280;9539;59.332;18.034;2023-03-04T02:07:24;99891.28;;;5.09;35.95
18821;BME280;9539;59.332;18.034;2023-03-04T02:09:47;99887.81;;;5.41;35.79
18821;BME280;9539;59.332;18.034;2023-03-04T02:12:09;99880.94;;;4.89;36.04
18821;BME280;9539;59.332;18.034;2023-03-04T02:14:31;99882.88;;;5.35;35.79
18821;BME280;9539;59.332;18.034;2023-03-04T02:16:53;99877.28;;;5.08;35.48
18821;BME280;9539;59.332;18.034;2023-03-04T02:19:20;99887.34;;;5.66;34.98
18821;BME280;9539;59.332;18.034;2023-03-04T02:21:45;99879.03;;;5.74;34.29
18821;BME280;9539;59.332;18.034;2023-03-04T02:24:12;99870.88;;;5.62;34.24
18821;BME280;9539;59.332;18.034;2023-03-04T02:26:37;99865.97;;;5.23;34.56
18821;BME280;9539;59.332;18.034;2023-03-04T02:29:03;99876.66;;;5.85;33.99
18821;BME280;9539;59.332;18.034;2023-03-04T02:31:27;99874.63;;;5.26;34.85
18821;BME280;9539;59.332;18.034;2023-03-04T02:33:52;99869.25;;;5.44;34.37
18821;BME280;9539;59.332;18.034;2023-03-04T02:36:15;99867.03;;;5.04;34.00
18821;BME280;9539;59.332;18.034;2023-03-04T02:38:37;99868.31;;;5.12;33.61
18821;BME280;9539;59.332;18.034;2023-03-04T02:40:59;99882.09;;;5.17;33.56
18821;BME280;9539;59.332;18.034;2023-03-04T02:43:23;99884.41;;;5.06;33.16
18821;BME280;9539;59.332;18.034;2023-03-04T02:45:46;99885.03;;;4.42;32.93
18821;BME280;9539;59.332;18.034;2023-03-04T02:48:09;99883.88;;;5.33;32.26
18821;BME280;9539;59.332;18.034;2023-03-04T02:50:35;99898.41;;;5.40;32.23
18821;BME280;9539;59.332;18.034;2023-03-04T02:52:57;99885.72;;;5.15;32.99
18821;BME280;9539;59.332;18.034;2023-03-04T02:55:19;99883.53;;;5.23;32.33
18821;BME280;9539;59.332;18.034;2023-03-04T02:57:41;99875.72;;;4.71;30.66
18821;BME280;9539;59.332;18.034;2023-03-04T03:00:06;99902.59;;;4.59;31.16
18821;BME280;9539;59.332;18.034;2023-03-04T03:02:28;99890.69;;;4.52;30.83
18821;BME280;9539;59.332;18.034;2023-03-04T03:04:50;99873.13;;;4.18;30.70
18821;BME280;9539;59.332;18.034;2023-03-04T03:07:12;99885.34;;;4.36;31.32
18821;BME280;9539;59.332;18.034;2023-03-04T03:09:34;99873.22;;;5.03;30.93
18821;BME280;9539;59.332;18.034;2023-03-04T03:11:56;99876.78;;;4.50;30.96
18821;BME280;9539;59.332;18.034;2023-03-04T03:14:18;99886.66;;;4.62;30.77
18821;BME280;9539;59.332;18.034;2023-03-04T03:16:41;99881.25;;;5.00;29.61
18821;BME280;9539;59.332;18.034;2023-03-04T03:19:03;99890.38;;;4.75;29.86
18821;BME280;9539;59.332;18.034;2023-03-04T03:21:25;99887.47;;;3.92;30.23
18821;BME280;9539;59.332;18.034;2023-03-04T03:23:48;99897.19;;;4.62;30.52
18821;BME280;9539;59.332;18.034;2023-03-04T03:26:10;99891.53;;;4.70;30.80
18821;BME280;9539;59.332;18.034;2023-03-04T03:28:32;99878.97;;;4.23;30.39
18821;BME280;9539;59.332;18.034;2023-03-04T03:30:54;99885.41;;;4.87;29.58
18821;BME280;9539;59.332;18.034;2023-03-04T03:33:17;99884.41;;;4.20;30.25
18821;BME280;9539;59.332;18.034;2023-03-04T03:35:39;99874.69;;;4.39;30.23
18821;BME280;9539;59.332;18.034;2023-03-04T03:38:01;99893.06;;;4.39;29.94
18821;BME280;9539;59.332;18.034;2023-03-04T03:40:23;99894.25;;;4.34;30.57
18821;BME280;9539;59.332;18.034;2023-03-04T03:42:45;99878.31;;;4.89;29.98
18821;BME280;9539;59.332;18.034;2023-03-04T03:45:07;99885.22;;;4.91;30.12
18821;BME280;9539;59.332;18.034;2023-03-04T03:47:29;99880.25;;;4.68;29.69
18821;BME280;9539;59.332;18.034;2023-03-04T03:49:53;99879.41;;;4.67;30.46
18821;BME280;9539;59.332;18.034;2023-03-04T03:52:15;99868.28;;;4.45;30.31
18821;BME280;9539;59.332;18.034;2023-03-04T03:54:37;99881.59;;;4.23;31.81
18821;BME280;9539;59.332;18.034;2023-03-04T03:56:59;99886.72;;;4.26;31.51
18821;BME280;9539;59.332;18.034;2023-03-04T03:59:21;99883.50;;;4.38;30.43
18821;BME280;9539;59.332;18.034;2023-03-04T04:01:43;99883.50;;;4.38;31.58
18821;BME280;9539;59.332;18.034;2023-03-04T04:04:05;99884.50;;;4.00;30.56
18821;BME280;9539;59.332;18.034;2023-03-04T04:06:28;99880.56;;;4.62;32.22
18821;BME280;9539;59.332;18.034;2023-03-04T04:08:50;99889.88;;;3.97;31.80
18821;BME280;9539;59.332;18.034;2023-03-04T04:11:12;99899.03;;;4.43;30.15
18821;BME280;9539;59.332;18.034;2023-03-04T04:13:34;99901.41;;;4.30;30.32
18821;BME280;9539;59.332;18.034;2023-03-04T04:15:56;99889.41;;;4.25;30.32
18821;BME280;9539;59.332;18.034;2023-03-04T04:18:19;99893.56;;;4.12;30.74
18821;BME280;9539;59.332;18.034;2023-03-04T04:20:40;99894.25;;;4.34;30.56
18821;BME280;9539;59.332;18.034;2023-03-04T04:23:04;99893.69;;;4.27;30.98
18821;BME280;9539;59.332;18.034;2023-03-04T04:25:26;99895.09;;;4.16;30.16
18821;BME280;9539;59.332;18.034;2023-03-04T04:27:48;99887.78;;;3.86;29.45
18821;BME280;9539;59.332;18.034;2023-03-04T04:30:11;99889.19;;;3.93;29.20
18821;BME280;9539;59.332;18.034;2023-03-04T04:32:33;99903.72;;;4.00;29.81
18821;BME280;9539;59.332;18.034;2023-03-04T04:34:54;99900.72;;;3.52;30.06
18821;BME280;9539;59.332;18.034;2023-03-04T04:37:17;99881.16;;;3.78;30.03
18821;BME280;9539;59.332;18.034;2023-03-04T04:39:40;99906.13;;;3.86;29.70
18821;BME280;9539;59.332;18.034;2023-03-04T04:42:02;99900.09;;;3.84;30.33
18821;BME280;9539;59.332;18.034;2023-03-04T04:44:24;99910.94;;;3.77;29.45
18821;BME280;9539;59.332;18.034;2023-03-04T04:46:46;99909.91;;;4.35;29.37
18821;BME280;9539;59.332;18.034;2023-03-04T04:49:09;99909.03;;;3.43;31.15
18821;BME280;9539;59.332;18.034;2023-03-04T04:51:31;99911.41;;;3.29;30.63
18821;BME280;9539;59.332;18.034;2023-03-04T04:53:53;99926.69;;;3.58;29.33
18821;BME280;9539;59.332;18.034;2023-03-04T04:56:19;99912.50;;;3.43;29.58
18821;BME280;9539;59.332;18.034;2023-03-04T04:58:43;99913.44;;;3.80;30.03
18821;BME280;9539;59.332;18.034;2023-03-04T05:01:06;99921.56;;;3.36;29.59
18821;BME280;9539;59.332;18.034;2023-03-04T05:03:28;99923.34;;;3.36;29.57
18821;BME280;9539;59.332;18.034;2023-03-04T05:05:49;99919.84;;;3.74;29.41
18821;BME280;9539;59.332;18.034;2023-03-04T05:08:11;99920.09;;;3.49;29.64
18821;BME280;9539;59.332;18.034;2023-03-04T05:10:33;99933.22;;;3.49;29.49
18821;BME280;9539;59.332;18.034;2023-03-04T05:12:57;99925.03;;;3.37;30.57
18821;BME280;9539;59.332;18.034;2023-03-04T05:15:19;99930.38;;;3.91;30.02
18821;BME280;9539;59.332;18.034;2023-03-04T05:17:41;99946.03;;;3.37;29.88
18821;BME280;9539;59.332;18.034;2023-03-04T05:20:04;99942.59;;;3.74;29.67
18821;BME280;9539;59.332;18.034;2023-03-04T05:22:26;99933.41;;;3.45;29.67
18821;BME280;9539;59.332;18.034;2023-03-04T05:24:48;99940.06;;;3.52;29.55
18821;BME280;9539;59.332;18.034;2023-03-04T05:27:10;99943.28;;;3.58;29.21
18821;BME280;9539;59.332;18.034;2023-03-04T05:29:34;99933.47;;;3.82;30.13
18821;BME280;9539;59.332;18.034;2023-03-04T05:31:56;99943.22;;;3.97;29.17
18821;BME280;9539;59.332;18.034;2023-03-04T05:34:18;99941.59;;;3.76;29.81
18821;BME280;9539;59.332;18.034;2023-03-04T05:36:40;99942.94;;;4.03;29.14
18821;BME280;9539;59.332;18.034;2023-03-04T05:39:02;99942.59;;;3.35;30.78
18821;BME280;9539;59.332;18.034;2023-03-04T05:41:24;99955.56;;;3.38;30.01
18821;BME280;9539;59.332;18.034;2023-03-04T05:43:45;99948.34;;;3.24;31.53
18821;BME280;9539;59.332;18.034;2023-03-04T05:46:12;99947.94;;;3.52;30.96
18821;BME280;9539;59.332;18.034;2023-03-04T05:48:34;99950.38;;;3.17;30.22
18821;BME280;9539;59.332;18.034;2023-03-04T05:50:58;99966.47;;;2.88;30.48
18821;BME280;9539;59.332;18.034;2023-03-04T05:53:21;99967.25;;;3.10;30.91
18821;BME280;9539;59.332;18.034;2023-03-04T05:55:45;99970.00;;;3.07;30.13
18821;BME280;9539;59.332;18.034;2023-03-04T05:58:07;99973.84;;;3.39;30.22
18821;BME280;9539;59.332;18.034;2023-03-04T06:00:29;99970.28;;;3.60;30.43
18821;BME280;9539;59.332;18.034;2023-03-04T06:02:53;99973.25;;;3.53;31.01
18821;BME280;9539;59.332;18.034;2023-03-04T06:05:15;99987.75;;;3.41;31.19
18821;BME280;9539;59.332;18.034;2023-03-04T06:07:41;99969.63;;;2.96;31.01
18821;BME280;9539;59.332;18.034;2023-03-04T06:10:04;99974.34;;;3.29;30.81
18821;BME280;9539;59.332;18.034;2023-03-04T06:12:26;99981.94;;;3.35;30.73
18821;BME280;9539;59.332;18.034;2023-03-04T06:14:49;99985.00;;;3.44;31.29
18821;BME280;9539;59.332;18.034;2023-03-04T06:17:11;99993.16;;;3.57;30.60
18821;BME280;9539;59.332;18.034;2023-03-04T06:19:34;100001.22;;;4.66;30.33
18821;BME280;9539;59.332;18.034;2023-03-04T06:21:58;99988.84;;;4.14;30.17
18821;BME280;9539;59.332;18.034;2023-03-04T06:24:20;100004.69;;;4.67;30.14
18821;BME280;9539;59.332;18.034;2023-03-04T06:26:42;99997.66;;;4.13;30.68
18821;BME280;9539;59.332;18.034;2023-03-04T06:29:04;99994.22;;;3.92;31.05
18821;BME280;9539;59.332;18.034;2023-03-04T06:31:27;100005.63;;;4.66;29.89
18821;BME280;9539;59.332;18.034;2023-03-04T06:33:48;100015.78;;;4.36;30.87
18821;BME280;9539;59.332;18.034;2023-03-04T06:36:12;100004.16;;;4.41;31.79
18821;BME280;9539;59.332;18.034;2023-03-04T06:38:34;100010.06;;;4.47;31.47
18821;BME280;9539;59.332;18.034;2023-03-04T06:40:56;100017.78;;;3.93;31.21
18821;BME280;9539;59.332;18.034;2023-03-04T06:43:18;100023.03;;;3.93;31.65
18821;BME280;9539;59.332;18.034;2023-03-04T06:45:40;100006.97;;;3.42;31.51
18821;BME280;9539;59.332;18.034;2023-03-04T06:48:02;100021.63;;;3.66;31.86
18821;BME280;9539;59.332;18.034;2023-03-04T06:50:24;100018.44;;;4.17;32.79
18821;BME280;9539;59.332;18.034;2023-03-04T06:52:48;100014.88;;;3.60;32.46
18821;BME280;9539;59.332;18.034;2023-03-04T06:55:10;100007.56;;;3.28;32.62
18821;BME280;9539;59.332;18.034;2023-03-04T06:57:32;100036.28;;;3.11;32.87
18821;BME280;9539;59.332;18.034;2023-03-04T06:59:54;100025.59;;;4.32;32.90
18821;BME280;9539;59.332;18.034;2023-03-04T07:02:16;100027.91;;;3.82;32.32
18821;BME280;9539;59.332;18.034;2023-03-04T07:04:38;100016.31;;;4.07;33.02
18821;BME280;9539;59.332;18.034;2023-03-04T07:07:00;100017.19;;;3.68;33.59
18821;BME280;9539;59.332;18.034;2023-03-04T07:09:24;100026.31;;;3.39;32.96
18821;BME280;9539;59.332;18.034;2023-03-04T07:11:46;100026.69;;;3.89;32.43
18821;BME280;9539;59.332;18.034;2023-03-04T07:14:08;100026.53;;;4.13;33.44
18821;BME280;9539;59.332;18.034;2023-03-04T07:16:30;100018.28;;;5.11;32.68
18821;BME280;9539;59.332;18.034;2023-03-04T07:18:52;100021.47;;;4.64;31.81
18821;BME280;9539;59.332;18.034;2023-03-04T07:21:15;100028.41;;;4.65;32.72
18821;BME280;9539;59.332;18.034;2023-03-04T07:23:38;100021.28;;;5.55;30.88
18821;BME280;9539;59.332;18.034;2023-03-04T07:26:01;100028.88;;;4.92;31.26
18821;BME280;9539;59.332;18.034;2023-03-04T07:28:23;100028.41;;;6.03;30.88
18821;BME280;9539;59.332;18.034;2023-03-04T07:30:45;100027.34;;;6.70;30.12
18821;BME280;9539;59.332;18.034;2023-03-04T07:33:07;100027.13;;;6.10;29.88
18821;BME280;9539;59.332;18.034;2023-03-04T07:35:29;100031.56;;;5.25;30.47
18821;BME280;9539;59.332;18.034;2023-03-04T07:37:51;100020.00;;;6.91;31.23
18821;BME280;9539;59.332;18.034;2023-03-04T07:40:13;100022.34;;;6.34;29.04
18821;BME280;9539;59.332;18.034;2023-03-04T07:42:36;100038.97;;;7.27;29.57
18821;BME280;9539;59.332;18.034;2023-03-04T07:44:58;100041.53;;;6.83;29.25
18821;BME280;9539;59.332;18.034;2023-03-04T07:47:21;100046.00;;;8.15;27.98
18821;BME280;9539;59.332;18.034;2023-03-04T07:49:43;100054.56;;;7.32;28.47
18821;BME280;9539;59.332;18.034;2023-03-04T07:52:05;100054.00;;;7.71;28.15
18821;BME280;9539;59.332;18.034;2023-03-04T07:54:28;100048.81;;;9.35;26.21
18821;BME280;9539;59.332;18.034;2023-03-04T07:56:50;100061.22;;;7.67;27.62
18821;BME280;9539;59.332;18.034;2023-03-04T07:59:14;100055.44;;;8.19;27.70
18821;BME280;9539;59.332;18.034;2023-03-04T08:01:36;100063.66;;;6.65;27.16
18821;BME280;9539;59.332;18.034;2023-03-04T08:03:59;100064.72;;;6.29;29.74
18821;BME280;9539;59.332;18.034;2023-03-04T08:06:22;100060.19;;;6.80;29.14
18821;BME280;9539;59.332;18.034;2023-03-04T08:08:45;100067.88;;;6.20;29.71
18821;BME280;9539;59.332;18.034;2023-03-04T08:11:13;100061.34;;;6.27;29.18
18821;BME280;9539;59.332;18.034;2023-03-04T08:13:35;100046.56;;;6.40;29.79
18821;BME280;9539;59.332;18.034;2023-03-04T08:15:58;100065.28;;;6.83;28.50
18821;BME280;9539;59.332;18.034;2023-03-04T08:18:21;100070.78;;;7.40;28.47
18821;BME280;9539;59.332;18.034;2023-03-04T08:20:42;100059.41;;;7.83;27.69
18821;BME280;9539;59.332;18.034;2023-03-04T08:23:04;100063.09;;;8.09;28.46
18821;BME280;9539;59.332;18.034;2023-03-04T08:25:26;100071.66;;;6.63;28.18
18821;BME280;9539;59.332;18.034;2023-03-04T08:27:49;100068.22;;;7.08;28.25
18821;BME280;9539;59.332;18.034;2023-03-04T08:30:12;100064.16;;;6.56;28.70
18821;BME280;9539;59.332;18.034;2023-03-04T08:32:35;100082.19;;;7.40;28.19
18821;BME280;9539;59.332;18.034;2023-03-04T08:34:57;100067.34;;;7.23;27.17
18821;BME280;9539;59.332;18.034;2023-03-04T08:37:21;100072.75;;;6.43;29.45
18821;BME280;9539;59.332;18.034;2023-03-04T08:39:43;100075.06;;;6.01;29.26
18821;BME280;9539;59.332;18.034;2023-03-04T08:42:05;100089.63;;;7.63;27.80
18821;BME280;9539;59.332;18.034;2023-03-04T08:44:27;100077.16;;;7.06;28.60
18821;BME280;9539;59.332;18.034;2023-03-04T08:46:49;100094.56;;;8.42;27.25
18821;BME280;9539;59.332;18.034;2023-03-04T08:49:13;100090.94;;;8.29;26.90
18821;BME280;9539;59.332;18.034;2023-03-04T08:51:35;100086.13;;;8.50;27.51
18821;BME280;9539;59.332;18.034;2023-03-04T08:53:57;100089.97;;;7.28;28.62
18821;BME280;9539;59.332;18.034;2023-03-04T08:56:19;100089.47;;;5.94;29.34
18821;BME280;9539;59.332;18.034;2023-03-04T08:58:41;100105.22;;;7.07;29.32
18821;BME280;9539;59.332;18.034;2023-03-04T09:01:03;100090.53;;;6.07;30.26
18821;BME280;9539;59.332;18.034;2023-03-04T09:03:25;100109.06;;;6.70;31.44
18821;BME280;9539;59.332;18.034;2023-03-04T09:05:49;100096.56;;;5.23;31.25
18821;BME280;9539;59.332;18.034;2023-03-04T09:08:13;100116.41;;;5.47;32.14
18821;BME280;9539;59.332;18.034;2023-03-04T09:10:34;100112.00;;;5.99;31.60
18821;BME280;9539;59.332;18.034;2023-03-04T09:12:57;100117.09;;;5.68;31.67
18821;BME280;9539;59.332;18.034;2023-03-04T09:15:20;100104.16;;;5.81;32.29
18821;BME280;9539;59.332;18.034;2023-03-04T09:17:42;100130.63;;;6.45;31.66
18821;BME280;9539;59.332;18.034;2023-03-04T09:20:05;100114.75;;;6.62;31.71
18821;BME280;9539;59.332;18.034;2023-03-04T09:22:29;100098.44;;;6.56;31.74
18821;BME280;9539;59.332;18.034;2023-03-04T09:24:51;100107.16;;;7.65;30.35
18821;BME280;9539;59.332;18.034;2023-03-04T09:27:13;100114.78;;;7.99;30.19
18821;BME280;9539;59.332;18.034;2023-03-04T09:29:35;100102.44;;;6.94;31.55
18821;BME280;9539;59.332;18.034;2023-03-04T09:31:57;100100.94;;;7.36;30.06
18821;BME280;9539;59.332;18.034;2023-03-04T09:34:19;100088.81;;;7.17;30.56
18821;BME280;9539;59.332;18.034;2023-03-04T09:36:41;100107.09;;;8.38;28.79
18821;BME280;9539;59.332;18.034;2023-03-04T09:39:04;100104.22;;;8.27;29.14
18821;BME280;9539;59.332;18.034;2023-03-04T09:41:33;100095.75;;;7.78;29.56
18821;BME280;9539;59.332;18.034;2023-03-04T09:43:57;100106.16;;;7.81;30.03
18821;BME280;9539;59.332;18.034;2023-03-04T09:46:24;100108.63;;;8.43;28.37
18821;BME280;9539;59.332;18.034;2023-03-04T09:48:50;100099.59;;;8.73;28.73
18821;BME280;9539;59.332;18.034;2023-03-04T09:51:19;100104.22;;;8.70;28.31
18821;BME280;9539;59.332;18.034;2023-03-04T09:53:57;100092.06;;;9.48;27.97
18821;BME280;9539;59.332;18.034;2023-03-04T09:56:22;100097.19;;;9.24;27.95
18821;BME280;9539;59.332;18.034;2023-03-04T09:58:54;100102.13;;;9.16;28.22
18821;BME280;9539;59.332;18.034;2023-03-04T10:01:21;100098.19;;;8.25;29.07
18821;BME280;9539;59.332;18.034;2023-03-04T10:03:49;100101.03;;;8.36;29.87
18821;BME280;9539;59.332;18.034;2023-03-04T10:06:15;100104.00;;;9.14;28.12
18821;BME280;9539;59.332;18.034;2023-03-04T10:08:40;100101.41;;;9.66;28.49
18821;BME280;9539;59.332;18.034;2023-03-04T10:11:10;100095.03;;;8.49;29.62
18821;BME280;9539;59.332;18.034;2023-03-04T10:13:38;100108.94;;;8.79;30.59
18821;BME280;9539;59.332;18.034;2023-03-04T10:16:03;100106.94;;;8.82;29.40
18821;BME280;9539;59.332;18.034;2023-03-04T10:18:33;100092.44;;;9.29;29.16
18821;BME280;9539;59.332;18.034;2023-03-04T10:21:00;100099.31;;;9.58;29.30
18821;BME280;9539;59.332;18.034;2023-03-04T10:23:25;100101.31;;;8.74;30.42
18821;BME280;9539;59.332;18.034;2023-03-04T10:25:47;100100.81;;;9.09;30.23
18821;BME280;9539;59.332;18.034;2023-03-04T10:28:16;100107.31;;;9.17;31.06
18821;BME280;9539;59.332;18.034;2023-03-04T10:30:46;100108.09;;;8.64;30.26
18821;BME280;9539;59.332;18.034;2023-03-04T10:33:12;100106.78;;;9.12;30.15
18821;BME280;9539;59.332;18.034;2023-03-04T10:35:35;100104.66;;;10.09;29.52
18821;BME280;9539;59.332;18.034;2023-03-04T10:38:01;100111.28;;;9.25;30.29
18821;BME280;9539;59.332;18.034;2023-03-04T10:40:25;100109.81;;;8.23;31.03
18821;BME280;9539;59.332;18.034;2023-03-04T10:42:48;100106.06;;;9.23;30.45
18821;BME280;9539;59.332;18.034;2023-03-04T10:45:19;100098.41;;;9.33;29.75
18821;BME280;9539;59.332;18.034;2023-03-04T10:47:51;100111.78;;;9.17;30.46
18821;BME280;9539;59.332;18.034;2023-03-04T10:50:21;100111.91;;;9.01;31.00
18821;BME280;9539;59.332;18.034;2023-03-04T10:52:46;100106.38;;;9.18;30.70
18821;BME280;9539;59.332;18.034;2023-03-04T10:55:15;100098.72;;;9.14;30.74
18821;BME280;9539;59.332;18.034;2023-03-04T10:57:39;100102.97;;;10.08;30.13
18821;BME280;9539;59.332;18.034;2023-03-04T11:00:25;100116.25;;;9.56;30.27
18821;BME280;9539;59.332;18.034;2023-03-04T11:02:48;100112.19;;;8.97;31.60
18821;BME280;9539;59.332;18.034;2023-03-04T11:05:21;100111.66;;;9.85;30.52
18821;BME280;9539;59.332;18.034;2023-03-04T11:07:45;100109.25;;;10.20;30.53
18821;BME280;9539;59.332;18.034;2023-03-04T11:10:10;100113.94;;;8.83;32.90
18821;BME280;9539;59.332;18.034;2023-03-04T11:12:35;100113.88;;;9.91;31.10
18821;BME280;9539;59.332;18.034;2023-03-04T11:14:57;100104.84;;;10.57;30.26
18821;BME280;9539;59.332;18.034;2023-03-04T11:17:22;100118.63;;;9.46;31.35
18821;BME280;9539;59.332;18.034;2023-03-04T11:19:47;100112.63;;;10.60;29.63
18821;BME280;9539;59.332;18.034;2023-03-04T11:22:13;100109.81;;;8.65;31.88
18821;BME280;9539;59.332;18.034;2023-03-04T11:24:36;100107.94;;;8.53;32.05
18821;BME280;9539;59.332;18.034;2023-03-04T11:27:02;100126.31;;;8.26;32.97
18821;BME280;9539;59.332;18.034;2023-03-04T11:29:29;100108.47;;;7.72;33.90
18821;BME280;9539;59.332;18.034;2023-03-04T11:31:55;100095.03;;;7.46;33.67
18821;BME280;9539;59.332;18.034;2023-03-04T11:34:29;100105.31;;;9.21;31.89
18821;BME280;9539;59.332;18.034;2023-03-04T11:36:57;100088.25;;;9.91;31.22
18821;BME280;9539;59.332;18.034;2023-03-04T11:39:30;100102.03;;;10.83;30.12
18821;BME280;9539;59.332;18.034;2023-03-04T11:41:57;100097.06;;;9.52;31.26
18821;BME280;9539;59.332;18.034;2023-03-04T11:44:21;100100.59;;;9.26;31.96
18821;BME280;9539;59.332;18.034;2023-03-04T11:47:04;100095.78;;;9.18;31.73
18821;BME280;9539;59.332;18.034;2023-03-04T11:49:54;100093.88;;;8.53;32.74
18821;BME280;9539;59.332;18.034;2023-03-04T11:52:30;100097.56;;;9.45;31.45
18821;BME280;9539;59.332;18.034;2023-03-04T11:55:07;100099.97;;;9.87;31.22
18821;BME280;9539;59.332;18.034;2023-03-04T11:57:43;100110.75;;;8.78;32.20
18821;BME280;9539;59.332;18.034;2023-03-04T12:00:18;100102.81;;;8.78;32.68
18821;BME280;9539;59.332;18.034;2023-03-04T12:02:50;100113.34;;;8.93;32.02
18821;BME280;9539;59.332;18.034;2023-03-04T12:05:26;100108.66;;;9.10;32.38
18821;BME280;9539;59.332;18.034;2023-03-04T12:08:20;100106.69;;;8.59;33.46
18821;BME280;9539;59.332;18.034;2023-03-04T12:10:53;100112.34;;;8.81;32.86
18821;BME280;9539;59.332;18.034;2023-03-04T12:13:47;100100.81;;;8.25;32.60
18821;BME280;9539;59.332;18.034;2023-03-04T12:16:20;100099.13;;;8.81;32.47
18821;BME280;9539;59.332;18.034;2023-03-04T12:19:01;100102.38;;;7.71;33.76
18821;BME280;9539;59.332;18.034;2023-03-04T12:21:38;100093.06;;;7.94;33.35
18821;BME280;9539;59.332;18.034;2023-03-04T12:24:22;100109.72;;;8.38;33.54
18821;BME280;9539;59.332;18.034;2023-03-04T12:26:48;100113.78;;;8.58;32.87
18821;BME280;9539;59.332;18.034;2023-03-04T12:29:14;100114.81;;;9.11;32.76
18821;BME280;9539;59.332;18.034;2023-03-04T12:31:40;100104.66;;;8.35;32.84
18821;BME280;9539;59.332;18.034;2023-03-04T12:34:29;100103.75;;;8.77;33.05
18821;BME280;9539;59.332;18.034;2023-03-04T12:36:54;100099.97;;;9.35;32.07
18821;BME280;9539;59.332;18.034;2023-03-04T12:39:31;100096.19;;;8.86;32.79
18821;BME280;9539;59.332;18.034;2023-03-04T12:42:01;100108.31;;;8.61;32.89
18821;BME280;9539;59.332;18.034;2023-03-04T12:44:30;100101.28;;;8.18;33.56
18821;BME280;9539;59.332;18.034;2023-03-04T12:47:12;100103.88;;;8.62;32.82
18821;BME280;9539;59.332;18.034;2023-03-04T12:49:51;100109.13;;;8.76;32.94